Time;durP1;ratioP1;P1;durP2;ratioP2;P2;SDS_P1;SDS_P2;PMS_P1;PMS_P2;Temp;Humidity;BMP_temperature;BMP_pressure;BME280_temperature;BME280_humidity;BME280_pressure;Samples;Min_cycle;Max_cycle;Signal;HPM_P1;HPM_P2
2022/03/05 00:08:09;;;;;;;20;23.6;;;;;;;1.2;80.3;99110;;;;
2022/03/05 00:18:09;;;;;;;20;23.6;;;;;;;1.3;80.3;99120;;;;
2022/03/05 00:29:09;;;;;;;20;23.6;;;;;;;1.2;81.1;99120;;;;
2022/03/05 00:40:09;;;;;;;25;30.2;;;;;;;1.3;80.3;99110;;;;
2022/03/05 00:50:09;;;;;;;25;30.2;;;;;;;1.2;80.1;99110;;;;
2022/03/05 01:00:11;;;;;;;25;30.2;;;;;;;1.2;79.8;99100;;;;
2022/03/05 01:10:09;;;;;;;25.7;32.1;;;;;;;1.1;79.6;99110;;;;
2022/03/05 01:21:09;;;;;;;25.7;32.1;;;;;;;1.1;79.7;99110;;;;
2022/03/05 01:31:09;;;;;;;25.7;32.1;;;;;;;1.1;79.7;99100;;;;
2022/03/05 01:42:09;;;;;;;23;27.1;;;;;;;1.1;80.2;99100;;;;
2022/03/05 01:52:09;;;;;;;23;27.1;;;;;;;1.2;79.9;99090;;;;
2022/03/05 02:03:10;;;;;;;27.9;31.8;;;;;;;1.2;80;99100;;;;
2022/03/05 02:14:09;;;;;;;27.9;31.8;;;;;;;1.3;80;99090;;;;
2022/03/05 02:25:09;;;;;;;27.9;31.8;;;;;;;1.2;80.3;99090;;;;
2022/03/05 02:36:09;;;;;;;32.3;38.8;;;;;;;1.2;80.9;99100;;;;
2022/03/05 02:47:09;;;;;;;32.3;38.8;;;;;;;1.3;80.8;99110;;;;
2022/03/05 02:57:09;;;;;;;32.3;38.8;;;;;;;1.4;80.7;99110;;;;
2022/03/05 03:08:09;;;;;;;34.7;39.8;;;;;;;1.3;80.7;99120;;;;
2022/03/05 03:18:09;;;;;;;34.7;39.8;;;;;;;1.2;80.9;99120;;;;
2022/03/05 03:29:09;;;;;;;34.7;39.8;;;;;;;1.2;81.3;99120;;;;
2022/03/05 03:39:09;;;;;;;28.8;33.4;;;;;;;1.3;80.7;99130;;;;
2022/03/05 03:49:09;;;;;;;28.8;33.4;;;;;;;1.2;81.1;99120;;;;
2022/03/05 03:59:09;;;;;;;28.8;33.4;;;;;;;1.2;81;99120;;;;
2022/03/05 04:09:09;;;;;;;29.8;35.7;;;;;;;1.1;81.1;99130;;;;
2022/03/05 04:20:09;;;;;;;29.8;35.7;;;;;;;1;81.3;99130;;;;
2022/03/05 04:30:09;;;;;;;29.8;35.7;;;;;;;1;81.8;99130;;;;
2022/03/05 04:40:09;;;;;;;30.1;36.7;;;;;;;1;81.8;99140;;;;
2022/03/05 04:51:09;;;;;;;30.1;36.7;;;;;;;1;81.6;99140;;;;
2022/03/05 05:01:10;;;;;;;30.1;36.7;;;;;;;1;81.3;99150;;;;
2022/03/05 05:11:09;;;;;;;28.1;32.7;;;;;;;1;80.8;99150;;;;
2022/03/05 05:21:09;;;;;;;28.1;32.7;;;;;;;0.9;80.7;99160;;;;
2022/03/05 05:31:09;;;;;;;28.1;32.7;;;;;;;0.8;80.5;99170;;;;
2022/03/05 05:42:09;;;;;;;23.5;28.9;;;;;;;0.6;80.2;99180;;;;
2022/03/05 05:52:09;;;;;;;23.5;28.9;;;;;;;0.6;80.1;99190;;;;
2022/03/05 06:03:09;;;;;;;21;27;;;;;;;0.4;80.4;99190;;;;
2022/03/05 06:14:10;;;;;;;21;27;;;;;;;0.4;80.4;99210;;;;
2022/03/05 06:24:09;;;;;;;21;27;;;;;;;0.6;80.1;99210;;;;
2022/03/05 06:35:09;;;;;;;21.8;27.1;;;;;;;0.8;78.9;99220;;;;
2022/03/05 06:46:09;;;;;;;21.8;27.1;;;;;;;0.9;78.3;99240;;;;
2022/03/05 06:56:09;;;;;;;21.8;27.1;;;;;;;1;76.9;99240;;;;
2022/03/05 07:06:09;;;;;;;28.3;35;;;;;;;1.2;75.5;99240;;;;
2022/03/05 07:17:09;;;;;;;28.3;35;;;;;;;1.2;75;99250;;;;
2022/03/05 07:28:10;;;;;;;28.3;35;;;;;;;1.6;73.7;99250;;;;
2022/03/05 07:39:09;;;;;;;21.4;26.2;;;;;;;1.7;73;99250;;;;
2022/03/05 07:50:09;;;;;;;21.4;26.2;;;;;;;1.4;73;99270;;;;
2022/03/05 08:01:09;;;;;;;18.9;25.8;;;;;;;1.6;72.2;99280;;;;
2022/03/05 08:11:11;;;;;;;18.9;25.8;;;;;;;2;70.5;99280;;;;
2022/03/05 08:21:09;;;;;;;18.9;25.8;;;;;;;1.7;70.3;99290;;;;
2022/03/05 08:32:09;;;;;;;15.5;20.2;;;;;;;1.6;68.7;99290;;;;
2022/03/05 08:42:09;;;;;;;15.5;20.2;;;;;;;1.2;67.1;99280;;;;
2022/03/05 08:52:09;;;;;;;15.5;20.2;;;;;;;1.6;65.4;99280;;;;
2022/03/05 09:03:09;;;;;;;9.7;13.5;;;;;;;1.9;63.7;99290;;;;
2022/03/05 09:14:09;;;;;;;9.7;13.5;;;;;;;2.8;60.2;99300;;;;
2022/03/05 09:24:09;;;;;;;9.7;13.5;;;;;;;2.9;58.6;99300;;;;
2022/03/05 09:35:09;;;;;;;9.8;15.4;;;;;;;3.4;57.2;99300;;;;
2022/03/05 09:45:09;;;;;;;9.8;15.4;;;;;;;3.1;53.6;99300;;;;
2022/03/05 09:55:09;;;;;;;9.8;15.4;;;;;;;2.7;52.7;99310;;;;
2022/03/05 10:06:09;;;;;;;5.4;8.4;;;;;;;2.8;54.8;99310;;;;
2022/03/05 10:16:11;;;;;;;5.4;8.4;;;;;;;2.7;53.2;99320;;;;
2022/03/05 10:26:09;;;;;;;5.4;8.4;;;;;;;3;54.1;99320;;;;
2022/03/05 10:37:09;;;;;;;7.1;12.4;;;;;;;3.1;54.3;99320;;;;
2022/03/05 10:48:10;;;;;;;7.1;12.4;;;;;;;3;52;99320;;;;
2022/03/05 10:58:13;;;;;;;7.1;12.4;;;;;;;3.2;48.7;99310;;;;
2022/03/05 11:09:09;;;;;;;4.6;7.8;;;;;;;3.8;48.4;99300;;;;
2022/03/05 11:19:09;;;;;;;4.6;7.8;;;;;;;3.9;46.6;99290;;;;
2022/03/05 11:30:09;;;;;;;4.6;7.8;;;;;;;3.9;47.6;99300;;;;
2022/03/05 11:40:09;;;;;;;5.2;10.9;;;;;;;3.4;47.7;99300;;;;
2022/03/05 11:51:12;;;;;;;5.2;10.9;;;;;;;3.1;48.2;99300;;;;
2022/03/05 12:02:09;;;;;;;6.1;9;;;;;;;3.1;47.9;99300;;;;
2022/03/05 12:12:09;;;;;;;6.1;9;;;;;;;3.2;48;99300;;;;
2022/03/05 12:22:11;;;;;;;6.1;9;;;;;;;3.3;48.9;99300;;;;
2022/03/05 12:33:09;;;;;;;7.4;10.3;;;;;;;3;47.3;99290;;;;
2022/03/05 12:43:09;;;;;;;7.4;10.3;;;;;;;2.9;46.9;99280;;;;
2022/03/05 12:54:09;;;;;;;7.4;10.3;;;;;;;3.3;46.2;99280;;;;
2022/03/05 13:04:09;;;;;;;4.9;7.1;;;;;;;3.5;45.7;99300;;;;
2022/03/05 13:14:10;;;;;;;4.9;7.1;;;;;;;3.3;45.9;99290;;;;
2022/03/05 13:25:09;;;;;;;4.9;7.1;;;;;;;2.4;50.9;99280;;;;
2022/03/05 13:35:09;;;;;;;5.1;8.5;;;;;;;2.7;52.3;99280;;;;
2022/03/05 13:45:10;;;;;;;5.1;8.5;;;;;;;2.7;52.4;99280;;;;
2022/03/05 13:55:10;;;;;;;5.1;8.5;;;;;;;2.6;51.4;99280;;;;
2022/03/05 14:05:10;;;;;;;5.7;8.1;;;;;;;2.7;50.5;99280;;;;
2022/03/05 14:16:09;;;;;;;5.7;8.1;;;;;;;3;50.3;99290;;;;
2022/03/05 14:27:10;;;;;;;5.7;8.1;;;;;;;2.7;52.2;99280;;;;
2022/03/05 14:37:11;;;;;;;6.4;9.1;;;;;;;2.7;51.4;99290;;;;
2022/03/05 14:47:09;;;;;;;6.4;9.1;;;;;;;2.6;50.9;99310;;;;
2022/03/05 14:57:10;;;;;;;6.4;9.1;;;;;;;2.2;52.6;99310;;;;
2022/03/05 15:07:10;;;;;;;9.4;13.4;;;;;;;2;53.9;99310;;;;
2022/03/05 15:18:10;;;;;;;9.4;13.4;;;;;;;1.9;56.3;99310;;;;
2022/03/05 15:28:10;;;;;;;9.4;13.4;;;;;;;1.7;57.2;99310;;;;
2022/03/05 15:39:10;;;;;;;9.9;14.3;;;;;;;1.6;58.5;99300;;;;
2022/03/05 15:49:10;;;;;;;9.9;14.3;;;;;;;1.5;58.8;99290;;;;
2022/03/05 16:00:10;;;;;;;11.1;13.8;;;;;;;1.5;59.6;99290;;;;
2022/03/05 16:11:10;;;;;;;11.1;13.8;;;;;;;1.3;60.6;99290;;;;
2022/03/05 16:22:10;;;;;;;11.1;13.8;;;;;;;1.2;61.4;99290;;;;
2022/03/05 16:33:10;;;;;;;12.2;15;;;;;;;1;61.8;99290;;;;
2022/03/05 16:43:10;;;;;;;12.2;15;;;;;;;0.9;62;99300;;;;
2022/03/05 16:54:10;;;;;;;12.2;15;;;;;;;0.8;62.6;99310;;;;
2022/03/05 17:04:10;;;;;;;17.2;22;;;;;;;0.8;63.1;99330;;;;
2022/03/05 17:15:10;;;;;;;17.2;22;;;;;;;0.7;63.5;99330;;;;
2022/03/05 17:26:10;;;;;;;17.2;22;;;;;;;0.8;63.3;99320;;;;
2022/03/05 17:36:10;;;;;;;18.4;22.7;;;;;;;0.7;63.8;99320;;;;
2022/03/05 17:46:10;;;;;;;18.4;22.7;;;;;;;0.7;64.6;99320;;;;
2022/03/05 17:56:10;;;;;;;18.4;22.7;;;;;;;0.6;65.2;99320;;;;
2022/03/05 18:07:10;;;;;;;26.2;31.6;;;;;;;0.6;65.1;99320;;;;
2022/03/05 18:18:10;;;;;;;26.2;31.6;;;;;;;0.6;65.2;99330;;;;
2022/03/05 18:29:10;;;;;;;31.6;35.4;;;;;;;0.6;66.2;99330;;;;
2022/03/05 18:40:10;;;;;;;31.6;35.4;;;;;;;0.5;66.2;99350;;;;
2022/03/05 18:50:10;;;;;;;31.6;35.4;;;;;;;0.5;67.2;99350;;;;
2022/03/05 19:01:10;;;;;;;29.7;37.6;;;;;;;0.5;67.5;99340;;;;
2022/03/05 19:11:10;;;;;;;29.7;37.6;;;;;;;0.5;67.6;99350;;;;
2022/03/05 19:21:10;;;;;;;29.7;37.6;;;;;;;0.4;68.2;99360;;;;
2022/03/05 19:32:10;;;;;;;33.8;39;;;;;;;0.4;69.1;99370;;;;
2022/03/05 19:43:10;;;;;;;33.8;39;;;;;;;0.4;69.6;99380;;;;
2022/03/05 19:53:10;;;;;;;33.8;39;;;;;;;0.4;69.9;99380;;;;
2022/03/05 20:04:10;;;;;;;45.3;54.7;;;;;;;0.3;70.9;99380;;;;
2022/03/05 20:15:10;;;;;;;45.3;54.7;;;;;;;0.2;71.9;99380;;;;
2022/03/05 20:25:10;;;;;;;45.3;54.7;;;;;;;0.3;72.5;99390;;;;
2022/03/05 20:35:10;;;;;;;34.5;41.6;;;;;;;0.2;72.9;99390;;;;
2022/03/05 20:46:10;;;;;;;34.5;41.6;;;;;;;0.3;72.7;99390;;;;
2022/03/05 20:56:10;;;;;;;34.5;41.6;;;;;;;0.3;72.7;99380;;;;
2022/03/05 21:06:10;;;;;;;35.9;42.4;;;;;;;0.3;73.1;99380;;;;
2022/03/05 21:17:10;;;;;;;35.9;42.4;;;;;;;0.3;73.4;99390;;;;
2022/03/05 21:28:10;;;;;;;35.9;42.4;;;;;;;0.3;73.3;99390;;;;
2022/03/05 21:38:10;;;;;;;39.6;45.6;;;;;;;0.4;73.6;99380;;;;
2022/03/05 21:49:10;;;;;;;39.6;45.6;;;;;;;0.4;73.2;99380;;;;
2022/03/05 22:00:10;;;;;;;39.6;45;;;;;;;0.4;73.5;99380;;;;
2022/03/05 22:11:10;;;;;;;39.6;45;;;;;;;0.3;74.2;99380;;;;
2022/03/05 22:21:10;;;;;;;39.6;45;;;;;;;0.3;74.5;99370;;;;
2022/03/05 22:31:10;;;;;;;43.1;54.3;;;;;;;0.4;74;99370;;;;
2022/03/05 22:41:10;;;;;;;43.1;54.3;;;;;;;0.4;74.1;99370;;;;
2022/03/05 22:51:10;;;;;;;43.1;54.3;;;;;;;0.4;74;99360;;;;
2022/03/05 23:01:10;;;;;;;41.3;49.2;;;;;;;0.3;74.3;99350;;;;
2022/03/05 23:11:10;;;;;;;41.3;49.2;;;;;;;0.3;74.1;99350;;;;
2022/03/05 23:22:10;;;;;;;41.3;49.2;;;;;;;0.3;74;99340;;;;
2022/03/05 23:33:10;;;;;;;36.5;41.1;;;;;;;0.3;74;99330;;;;
2022/03/05 23:43:10;;;;;;;36.5;41.1;;;;;;;0.2;74;99330;;;;
2022/03/05 23:53:10;;;;;;;36.5;41.1;;;;;;;0;74.4;99320;;;;
